createdAt,value
2019-05-11T00:04:18.807Z,30.00
2019-05-11T00:20:40.221Z,30.10
2019-05-11T00:25:56.003Z,30.10
2019-05-11T00:36:33.897Z,30.20
2019-05-11T00:41:48.914Z,30.30
2019-05-11T00:46:57.032Z,30.30
2019-05-11T00:52:07.718Z,30.40
2019-05-11T00:57:28.483Z,30.50
2019-05-11T01:02:45.835Z,30.50
2019-05-11T01:07:56.744Z,30.50
2019-05-11T01:13:04.640Z,30.60
2019-05-11T01:18:13.002Z,30.70
2019-05-11T01:23:31.704Z,30.70
2019-05-11T01:28:44.332Z,30.80
2019-05-11T01:33:54.511Z,30.90
2019-05-11T01:39:05.789Z,30.90
2019-05-11T01:44:13.109Z,30.90
2019-05-11T01:49:23.553Z,31.00
2019-05-11T01:54:31.684Z,31.10
2019-05-11T01:59:41.949Z,31.20
2019-05-11T02:04:59.510Z,31.30
2019-05-11T02:10:33.182Z,31.40
2019-05-11T02:15:42.301Z,31.40
2019-05-11T02:20:59.442Z,31.40
2019-05-11T02:26:08.106Z,31.50
2019-05-11T02:31:16.782Z,31.50
2019-05-11T02:36:29.174Z,31.50
2019-05-11T02:41:38.480Z,31.60
2019-05-11T02:47:16.280Z,31.60
2019-05-11T02:52:27.969Z,31.80
2019-05-11T02:57:35.761Z,32.00
2019-05-11T03:02:44.617Z,32.20
2019-05-11T03:07:54.260Z,32.30
2019-05-11T03:13:05.920Z,32.40
2019-05-11T03:18:21.316Z,32.40
2019-05-11T03:23:45.511Z,32.50
2019-05-11T03:28:57.236Z,32.60
2019-05-11T03:34:06.259Z,32.50
2019-05-11T03:39:16.659Z,32.70
2019-05-11T03:44:28.821Z,32.80
2019-05-11T03:49:35.886Z,32.90
2019-05-11T03:54:51.911Z,33.00
2019-05-11T04:00:01.661Z,33.20
2019-05-11T04:05:18.804Z,33.30
2019-05-11T04:10:28.267Z,33.40
2019-05-11T04:15:45.837Z,33.50
2019-05-11T04:21:16.121Z,33.60
2019-05-11T04:31:55.076Z,33.90
2019-05-11T04:37:12.289Z,34.00
2019-05-11T04:42:20.714Z,34.10
2019-05-11T04:47:36.427Z,34.20
2019-05-11T04:52:48.791Z,34.30
2019-05-11T04:57:59.435Z,34.40
2019-05-11T05:03:10.046Z,34.50
2019-05-11T05:08:26.485Z,34.50
2019-05-11T05:13:43.495Z,34.60
2019-05-11T05:18:54.471Z,34.70
2019-05-11T05:24:06.140Z,34.70
2019-05-11T05:29:15.906Z,34.90
2019-05-11T05:39:53.496Z,35.30
2019-05-11T05:45:03.063Z,35.40
2019-05-11T05:50:18.519Z,35.40
2019-05-11T05:55:27.746Z,35.40
2019-05-11T06:00:35.949Z,35.50
2019-05-11T06:05:44.351Z,35.60
2019-05-11T06:10:56.519Z,35.80
2019-05-11T06:16:08.562Z,35.90
2019-05-11T06:21:17.402Z,36.00
2019-05-11T06:26:26.881Z,36.20
2019-05-11T06:31:35.503Z,36.40
2019-05-11T06:36:43.644Z,36.40
2019-05-11T06:41:55.841Z,36.40
2019-05-11T06:47:04.252Z,36.40
2019-05-11T06:52:12.474Z,36.40
2019-05-11T06:57:21.500Z,36.40
2019-05-11T07:02:29.845Z,36.50
2019-05-11T07:07:47.268Z,36.60
2019-05-11T07:12:48.099Z,36.70
2019-05-11T07:17:56.694Z,36.80
2019-05-11T07:23:04.935Z,36.80
2019-05-11T07:28:13.266Z,36.70
2019-05-11T07:33:21.674Z,36.80
2019-05-11T07:38:29.713Z,36.90
2019-05-11T07:43:38.116Z,37.00
2019-05-11T07:48:47.963Z,37.00
2019-05-11T07:53:57.799Z,36.90
2019-05-11T07:59:09.688Z,37.00
2019-05-11T08:04:18.302Z,37.00
2019-05-11T08:09:27.827Z,37.10
2019-05-11T08:14:55.926Z,37.20
2019-05-11T08:19:53.646Z,37.10
2019-05-11T08:25:09.392Z,37.10
2019-05-11T08:30:18.820Z,37.10
2019-05-11T08:35:48.028Z,37.10
2019-05-11T08:40:56.196Z,37.10
2019-05-11T08:46:04.739Z,37.20
2019-05-11T08:51:18.008Z,37.20
2019-05-11T08:56:28.734Z,37.20
2019-05-11T09:01:39.054Z,37.20
2019-05-11T09:06:44.848Z,37.30
2019-05-11T09:11:55.196Z,37.50
2019-05-11T09:17:03.482Z,37.50
2019-05-11T09:22:14.033Z,37.50
2019-05-11T09:27:22.388Z,37.60
2019-05-11T09:32:40.726Z,37.60
2019-05-11T09:37:58.610Z,37.60
2019-05-11T09:43:09.298Z,37.60
2019-05-11T09:48:18.098Z,37.60
2019-05-11T09:53:28.669Z,37.50
2019-05-11T09:58:39.818Z,37.50
2019-05-11T10:03:48.362Z,37.50
2019-05-11T10:08:57.883Z,37.50
2019-05-11T10:14:08.334Z,37.40
2019-05-11T10:19:17.688Z,37.40
2019-05-11T10:24:32.302Z,37.30
2019-05-11T10:29:44.374Z,37.20
2019-05-11T10:34:53.089Z,37.20
2019-05-11T10:40:01.527Z,37.00
2019-05-11T10:45:11.165Z,36.90
2019-05-11T10:50:20.028Z,36.80
2019-05-11T10:55:29.125Z,36.80
2019-05-11T11:00:38.859Z,36.60
2019-05-11T11:05:48.781Z,36.60
2019-05-11T11:10:58.622Z,36.50
2019-05-11T11:16:08.498Z,36.40
2019-05-11T11:21:22.087Z,36.40
2019-05-11T11:26:28.459Z,36.30
2019-05-11T11:31:38.018Z,36.20
2019-05-11T11:36:48.145Z,36.10
2019-05-11T11:41:58.537Z,36.00
2019-05-11T11:47:08.716Z,36.00
2019-05-11T11:52:19.114Z,35.80
2019-05-11T11:57:28.388Z,35.80
2019-05-11T12:02:38.566Z,35.70
2019-05-11T12:07:45.802Z,35.60
2019-05-11T12:12:53.930Z,35.50
2019-05-11T12:18:02.515Z,35.50
2019-05-11T12:28:29.407Z,35.40
2019-05-11T12:33:38.569Z,35.30
2019-05-11T12:38:48.805Z,35.30
2019-05-11T12:43:57.755Z,35.20
2019-05-11T12:49:07.328Z,35.20
2019-05-11T12:54:14.732Z,35.10
2019-05-11T12:59:22.698Z,35.00
2019-05-11T13:04:30.721Z,34.90
2019-05-11T13:09:38.806Z,34.90
2019-05-11T13:14:48.646Z,34.90
2019-05-11T13:19:55.795Z,34.80
2019-05-11T13:25:03.633Z,34.70
2019-05-11T13:30:11.580Z,34.60
2019-05-11T13:35:21.529Z,34.60
2019-05-11T13:40:30.178Z,34.60
2019-05-11T13:45:38.751Z,34.50
2019-05-11T13:50:47.957Z,34.50
2019-05-11T13:56:18.438Z,34.40
2019-05-11T14:01:27.886Z,34.30
2019-05-11T14:06:37.648Z,34.20
2019-05-11T14:11:45.043Z,34.20
2019-05-11T14:16:53.550Z,34.20
2019-05-11T14:22:02.061Z,34.10
2019-05-11T14:27:10.927Z,34.10
2019-05-11T14:37:58.784Z,34.00
2019-05-11T14:43:13.331Z,33.90
2019-05-11T14:48:26.664Z,33.90
2019-05-11T14:53:29.534Z,33.80
2019-05-11T14:58:39.198Z,33.90
2019-05-11T15:03:48.759Z,33.80
2019-05-11T15:08:58.613Z,33.70
2019-05-11T15:14:09.585Z,33.70
2019-05-11T15:19:18.477Z,33.70
2019-05-11T15:24:30.246Z,33.60
2019-05-11T15:29:39.242Z,33.60
2019-05-11T15:40:30.399Z,33.60
2019-05-11T15:45:48.557Z,33.50
2019-05-11T15:50:58.530Z,33.50
2019-05-11T16:01:48.745Z,33.50
2019-05-11T16:07:24.292Z,33.40
2019-05-11T16:12:28.630Z,33.40
2019-05-11T16:17:40.388Z,33.30
2019-05-11T16:33:31.682Z,33.20
2019-05-11T16:38:39.704Z,33.20
2019-05-11T16:43:48.632Z,33.10
2019-05-11T16:49:04.344Z,33.10
2019-05-11T16:54:20.353Z,33.10
2019-05-11T16:59:32.837Z,33.00
2019-05-11T17:04:42.452Z,33.00
2019-05-11T17:09:49.894Z,33.00
2019-05-11T17:14:59.359Z,32.90
2019-05-11T17:20:08.376Z,32.90
2019-05-11T17:25:19.273Z,32.90
2019-05-11T17:30:28.018Z,32.90
2019-05-11T17:35:35.427Z,32.80
2019-05-11T17:40:48.294Z,32.80
2019-05-11T17:45:55.703Z,32.80
2019-05-11T17:51:17.545Z,32.80
2019-05-11T17:56:12.246Z,32.80
2019-05-11T18:01:19.996Z,32.70
2019-05-11T18:06:29.084Z,32.70
2019-05-11T18:11:40.195Z,32.70
2019-05-11T18:16:52.870Z,32.70
2019-05-11T18:22:02.827Z,32.70
2019-05-11T18:27:11.218Z,32.70
2019-05-11T18:32:19.029Z,32.60
2019-05-11T18:37:28.096Z,32.60
2019-05-11T18:42:35.293Z,32.60
2019-05-11T18:47:42.326Z,32.60
2019-05-11T18:52:50.002Z,32.50
2019-05-11T18:57:58.600Z,32.50
2019-05-11T19:03:08.831Z,32.50
2019-05-11T19:08:18.800Z,32.50
2019-05-11T19:13:25.004Z,32.40
2019-05-11T19:18:32.559Z,32.40
2019-05-11T19:23:41.660Z,32.40
2019-05-11T19:28:49.105Z,32.30
2019-05-11T19:33:58.143Z,32.30
2019-05-11T19:39:08.796Z,32.30
2019-05-11T19:44:18.731Z,32.30
2019-05-11T19:49:28.030Z,32.20
2019-05-11T19:54:38.245Z,32.20
2019-05-11T19:59:47.905Z,32.20
2019-05-11T20:04:55.267Z,32.20
2019-05-11T20:10:03.318Z,32.10
2019-05-11T20:15:11.904Z,32.20
2019-05-11T20:20:19.606Z,32.10
2019-05-11T20:25:28.872Z,32.10
2019-05-11T20:30:35.635Z,32.10
2019-05-11T20:35:43.180Z,32.00
2019-05-11T20:40:51.332Z,32.00
2019-05-11T20:46:00.181Z,32.00
2019-05-11T20:51:10.939Z,31.90
2019-05-11T20:56:18.722Z,32.00
2019-05-11T21:06:53.293Z,31.90
2019-05-11T21:12:02.991Z,31.90
2019-05-11T21:17:10.984Z,31.80
2019-05-11T21:22:20.597Z,31.80
2019-05-11T21:27:28.823Z,31.80
2019-05-11T21:32:37.596Z,31.80
2019-05-11T21:37:44.997Z,31.80
2019-05-11T21:42:53.310Z,31.70
2019-05-11T21:48:00.664Z,31.70
2019-05-11T21:53:10.640Z,31.70
2019-05-11T21:58:18.213Z,31.70
2019-05-11T22:03:27.929Z,31.70
2019-05-11T22:08:35.162Z,31.60
2019-05-11T22:13:42.884Z,31.60
2019-05-11T22:18:50.282Z,31.60
2019-05-11T22:23:58.658Z,31.60
2019-05-11T22:29:07.889Z,31.60
2019-05-11T22:34:17.705Z,31.60
2019-05-11T22:39:26.245Z,31.50
2019-05-11T22:44:35.852Z,31.50
2019-05-11T22:49:44.457Z,31.50
2019-05-11T22:54:53.066Z,31.50
2019-05-11T23:00:01.712Z,31.40
2019-05-11T23:05:11.557Z,31.40
2019-05-11T23:10:18.915Z,31.40
2019-05-11T23:15:29.317Z,31.40
2019-05-11T23:20:38.614Z,31.40
2019-05-11T23:25:45.633Z,31.40
2019-05-11T23:30:58.245Z,31.40
2019-05-11T23:36:13.126Z,31.40
2019-05-11T23:41:28.765Z,31.30
2019-05-11T23:46:52.123Z,31.40
2019-05-11T23:52:11.898Z,31.40
2019-05-11T23:57:02.677Z,31.50
